sensor_id;sensor_type;location;lat;lon;timestamp;P1;durP1;ratioP1;P2;durP2;ratioP2
7605;SDS011;3844;53.360;9.738;2023-05-07T00:01:58;23.40;;;14.30;;
7605;SDS011;3844;53.360;9.738;2023-05-07T00:03:59;21.73;;;13.38;;
7605;SDS011;3844;53.360;9.738;2023-05-07T00:06:00;23.63;;;13.98;;
7605;SDS011;3844;53.360;9.738;2023-05-07T00:08:01;23.33;;;13.73;;
7605;SDS011;3844;53.360;9.738;2023-05-07T00:10:02;22.90;;;13.52;;
7605;SDS011;3844;53.360;9.738;2023-05-07T00:12:04;19.85;;;12.68;;
7605;SDS011;3844;53.360;9.738;2023-05-07T00:14:05;23.10;;;13.75;;
7605;SDS011;3844;53.360;9.738;2023-05-07T00:16:05;21.35;;;13.23;;
7605;SDS011;3844;53.360;9.738;2023-05-07T00:18:06;21.50;;;12.98;;
7605;SDS011;3844;53.360;9.738;2023-05-07T00:20:07;21.55;;;13.15;;
7605;SDS011;3844;53.360;9.738;2023-05-07T00:22:08;21.65;;;13.55;;
7605;SDS011;3844;53.360;9.738;2023-05-07T00:24:09;21.55;;;12.95;;
7605;SDS011;3844;53.360;9.738;2023-05-07T00:26:10;23.05;;;13.18;;
7605;SDS011;3844;53.360;9.738;2023-05-07T00:28:10;23.58;;;13.65;;
7605;SDS011;3844;53.360;9.738;2023-05-07T00:30:11;21.40;;;13.50;;
7605;SDS011;3844;53.360;9.738;2023-05-07T00:32:12;19.27;;;12.55;;
7605;SDS011;3844;53.360;9.738;2023-05-07T00:34:13;21.00;;;13.38;;
7605;SDS011;3844;53.360;9.738;2023-05-07T00:36:14;21.00;;;13.15;;
7605;SDS011;3844;53.360;9.738;2023-05-07T00:38:14;21.98;;;13.02;;
7605;SDS011;3844;53.360;9.738;2023-05-07T00:40:15;20.60;;;11.90;;
7605;SDS011;3844;53.360;9.738;2023-05-07T00:42:16;22.40;;;12.93;;
7605;SDS011;3844;53.360;9.738;2023-05-07T00:44:17;18.52;;;12.02;;
7605;SDS011;3844;53.360;9.738;2023-05-07T00:46:19;20.73;;;12.85;;
7605;SDS011;3844;53.360;9.738;2023-05-07T00:48:21;20.83;;;12.97;;
7605;SDS011;3844;53.360;9.738;2023-05-07T00:50:24;19.95;;;12.30;;
7605;SDS011;3844;53.360;9.738;2023-05-07T00:52:26;19.80;;;12.15;;
7605;SDS011;3844;53.360;9.738;2023-05-07T00:54:28;21.17;;;12.35;;
7605;SDS011;3844;53.360;9.738;2023-05-07T00:56:29;19.05;;;11.32;;
7605;SDS011;3844;53.360;9.738;2023-05-07T00:58:31;19.08;;;11.77;;
7605;SDS011;3844;53.360;9.738;2023-05-07T01:00:32;18.75;;;11.23;;
7605;SDS011;3844;53.360;9.738;2023-05-07T01:02:34;19.63;;;11.27;;
7605;SDS011;3844;53.360;9.738;2023-05-07T01:04:35;16.30;;;11.05;;
7605;SDS011;3844;53.360;9.738;2023-05-07T01:06:36;16.02;;;10.25;;
7605;SDS011;3844;53.360;9.738;2023-05-07T01:08:38;15.32;;;10.07;;
7605;SDS011;3844;53.360;9.738;2023-05-07T01:10:40;16.45;;;10.23;;
7605;SDS011;3844;53.360;9.738;2023-05-07T01:12:42;16.92;;;10.25;;
7605;SDS011;3844;53.360;9.738;2023-05-07T01:14:45;16.70;;;9.73;;
7605;SDS011;3844;53.360;9.738;2023-05-07T01:16:46;15.75;;;9.88;;
7605;SDS011;3844;53.360;9.738;2023-05-07T01:18:48;13.75;;;8.98;;
7605;SDS011;3844;53.360;9.738;2023-05-07T01:20:49;13.63;;;9.50;;
7605;SDS011;3844;53.360;9.738;2023-05-07T01:22:50;14.50;;;9.45;;
7605;SDS011;3844;53.360;9.738;2023-05-07T01:24:51;13.60;;;8.57;;
7605;SDS011;3844;53.360;9.738;2023-05-07T01:26:52;15.75;;;9.30;;
7605;SDS011;3844;53.360;9.738;2023-05-07T01:28:53;14.80;;;9.38;;
7605;SDS011;3844;53.360;9.738;2023-05-07T01:30:54;14.45;;;9.45;;
7605;SDS011;3844;53.360;9.738;2023-05-07T01:33:06;14.55;;;9.40;;
7605;SDS011;3844;53.360;9.738;2023-05-07T01:35:14;14.57;;;9.20;;
7605;SDS011;3844;53.360;9.738;2023-05-07T01:37:19;14.00;;;9.15;;
7605;SDS011;3844;53.360;9.738;2023-05-07T01:39:22;15.30;;;9.55;;
7605;SDS011;3844;53.360;9.738;2023-05-07T01:41:25;14.68;;;9.32;;
7605;SDS011;3844;53.360;9.738;2023-05-07T01:43:26;15.20;;;9.07;;
7605;SDS011;3844;53.360;9.738;2023-05-07T01:45:27;13.88;;;8.98;;
7605;SDS011;3844;53.360;9.738;2023-05-07T01:47:29;15.43;;;9.63;;
7605;SDS011;3844;53.360;9.738;2023-05-07T01:49:30;14.55;;;9.10;;
7605;SDS011;3844;53.360;9.738;2023-05-07T01:51:31;18.30;;;9.65;;
7605;SDS011;3844;53.360;9.738;2023-05-07T01:53:36;15.90;;;9.85;;
7605;SDS011;3844;53.360;9.738;2023-05-07T01:55:37;14.48;;;9.30;;
7605;SDS011;3844;53.360;9.738;2023-05-07T01:57:38;16.02;;;10.15;;
7605;SDS011;3844;53.360;9.738;2023-05-07T01:59:39;14.00;;;9.50;;
7605;SDS011;3844;53.360;9.738;2023-05-07T02:01:39;15.13;;;9.52;;
7605;SDS011;3844;53.360;9.738;2023-05-07T02:03:41;16.20;;;10.02;;
7605;SDS011;3844;53.360;9.738;2023-05-07T02:05:42;16.88;;;10.95;;
7605;SDS011;3844;53.360;9.738;2023-05-07T02:07:42;16.23;;;10.40;;
7605;SDS011;3844;53.360;9.738;2023-05-07T02:09:43;16.92;;;10.93;;
7605;SDS011;3844;53.360;9.738;2023-05-07T02:11:44;15.27;;;10.05;;
7605;SDS011;3844;53.360;9.738;2023-05-07T02:13:45;15.07;;;10.52;;
7605;SDS011;3844;53.360;9.738;2023-05-07T02:15:46;15.85;;;10.20;;
7605;SDS011;3844;53.360;9.738;2023-05-07T02:18:03;14.50;;;9.40;;
7605;SDS011;3844;53.360;9.738;2023-05-07T02:20:05;15.68;;;10.43;;
7605;SDS011;3844;53.360;9.738;2023-05-07T02:22:07;15.93;;;10.00;;
7605;SDS011;3844;53.360;9.738;2023-05-07T02:24:09;15.95;;;9.85;;
7605;SDS011;3844;53.360;9.738;2023-05-07T02:26:10;16.00;;;9.95;;
7605;SDS011;3844;53.360;9.738;2023-05-07T02:28:11;17.95;;;10.50;;
7605;SDS011;3844;53.360;9.738;2023-05-07T02:30:13;14.38;;;10.05;;
7605;SDS011;3844;53.360;9.738;2023-05-07T02:32:14;16.88;;;10.50;;
7605;SDS011;3844;53.360;9.738;2023-05-07T02:34:15;16.58;;;10.07;;
7605;SDS011;3844;53.360;9.738;2023-05-07T02:36:16;15.90;;;9.95;;
7605;SDS011;3844;53.360;9.738;2023-05-07T02:38:17;15.00;;;9.80;;
7605;SDS011;3844;53.360;9.738;2023-05-07T02:40:18;14.57;;;9.50;;
7605;SDS011;3844;53.360;9.738;2023-05-07T02:42:19;15.63;;;9.80;;
7605;SDS011;3844;53.360;9.738;2023-05-07T02:44:19;14.25;;;10.02;;
7605;SDS011;3844;53.360;9.738;2023-05-07T02:46:21;17.13;;;10.10;;
7605;SDS011;3844;53.360;9.738;2023-05-07T02:48:21;14.38;;;9.80;;
7605;SDS011;3844;53.360;9.738;2023-05-07T02:50:22;14.80;;;10.05;;
7605;SDS011;3844;53.360;9.738;2023-05-07T02:52:23;14.68;;;10.32;;
7605;SDS011;3844;53.360;9.738;2023-05-07T02:54:23;17.65;;;10.20;;
7605;SDS011;3844;53.360;9.738;2023-05-07T02:56:25;15.85;;;10.43;;
7605;SDS011;3844;53.360;9.738;2023-05-07T02:58:26;14.88;;;9.52;;
7605;SDS011;3844;53.360;9.738;2023-05-07T03:00:27;15.35;;;9.80;;
7605;SDS011;3844;53.360;9.738;2023-05-07T03:02:28;14.43;;;9.88;;
7605;SDS011;3844;53.360;9.738;2023-05-07T03:04:29;15.63;;;10.38;;
7605;SDS011;3844;53.360;9.738;2023-05-07T03:06:30;13.70;;;9.07;;
7605;SDS011;3844;53.360;9.738;2023-05-07T03:08:30;14.38;;;9.82;;
7605;SDS011;3844;53.360;9.738;2023-05-07T03:10:31;13.65;;;9.10;;
7605;SDS011;3844;53.360;9.738;2023-05-07T03:12:32;14.15;;;9.27;;
7605;SDS011;3844;53.360;9.738;2023-05-07T03:14:33;14.02;;;9.38;;
7605;SDS011;3844;53.360;9.738;2023-05-07T03:16:34;15.68;;;10.23;;
7605;SDS011;3844;53.360;9.738;2023-05-07T03:18:34;16.38;;;10.93;;
7605;SDS011;3844;53.360;9.738;2023-05-07T03:20:36;15.23;;;10.20;;
7605;SDS011;3844;53.360;9.738;2023-05-07T03:22:36;15.77;;;9.85;;
7605;SDS011;3844;53.360;9.738;2023-05-07T03:24:37;15.07;;;10.27;;
7605;SDS011;3844;53.360;9.738;2023-05-07T03:26:38;13.95;;;9.45;;
7605;SDS011;3844;53.360;9.738;2023-05-07T03:28:39;15.52;;;10.23;;
7605;SDS011;3844;53.360;9.738;2023-05-07T03:30:39;14.98;;;9.98;;
7605;SDS011;3844;53.360;9.738;2023-05-07T03:32:40;15.82;;;9.77;;
7605;SDS011;3844;53.360;9.738;2023-05-07T03:34:41;16.27;;;10.48;;
7605;SDS011;3844;53.360;9.738;2023-05-07T03:36:42;15.68;;;10.23;;
7605;SDS011;3844;53.360;9.738;2023-05-07T03:38:43;14.82;;;9.80;;
7605;SDS011;3844;53.360;9.738;2023-05-07T03:40:43;16.83;;;10.60;;
7605;SDS011;3844;53.360;9.738;2023-05-07T03:42:44;15.05;;;9.40;;
7605;SDS011;3844;53.360;9.738;2023-05-07T03:44:45;14.90;;;10.05;;
7605;SDS011;3844;53.360;9.738;2023-05-07T03:46:46;16.33;;;10.57;;
7605;SDS011;3844;53.360;9.738;2023-05-07T03:48:47;16.65;;;10.82;;
7605;SDS011;3844;53.360;9.738;2023-05-07T03:50:47;18.05;;;11.52;;
7605;SDS011;3844;53.360;9.738;2023-05-07T03:52:48;16.33;;;11.13;;
7605;SDS011;3844;53.360;9.738;2023-05-07T03:54:49;18.20;;;11.15;;
7605;SDS011;3844;53.360;9.738;2023-05-07T03:56:50;18.45;;;11.80;;
7605;SDS011;3844;53.360;9.738;2023-05-07T03:58:50;17.00;;;11.23;;
7605;SDS011;3844;53.360;9.738;2023-05-07T04:00:51;17.63;;;11.43;;
7605;SDS011;3844;53.360;9.738;2023-05-07T04:02:52;16.73;;;11.10;;
7605;SDS011;3844;53.360;9.738;2023-05-07T04:04:53;17.42;;;11.25;;
7605;SDS011;3844;53.360;9.738;2023-05-07T04:06:54;17.15;;;11.20;;
7605;SDS011;3844;53.360;9.738;2023-05-07T04:08:55;16.25;;;10.40;;
7605;SDS011;3844;53.360;9.738;2023-05-07T04:10:56;16.02;;;10.15;;
7605;SDS011;3844;53.360;9.738;2023-05-07T04:12:57;16.73;;;11.15;;
7605;SDS011;3844;53.360;9.738;2023-05-07T04:14:58;18.02;;;11.18;;
7605;SDS011;3844;53.360;9.738;2023-05-07T04:16:59;17.90;;;11.43;;
7605;SDS011;3844;53.360;9.738;2023-05-07T04:18:59;18.65;;;11.80;;
7605;SDS011;3844;53.360;9.738;2023-05-07T04:21:00;17.33;;;11.35;;
7605;SDS011;3844;53.360;9.738;2023-05-07T04:23:01;17.60;;;11.55;;
7605;SDS011;3844;53.360;9.738;2023-05-07T04:25:05;19.90;;;11.25;;
7605;SDS011;3844;53.360;9.738;2023-05-07T04:27:06;18.00;;;11.57;;
7605;SDS011;3844;53.360;9.738;2023-05-07T04:29:07;17.92;;;10.93;;
7605;SDS011;3844;53.360;9.738;2023-05-07T04:31:08;16.15;;;10.57;;
7605;SDS011;3844;53.360;9.738;2023-05-07T04:33:09;18.50;;;11.23;;
7605;SDS011;3844;53.360;9.738;2023-05-07T04:35:10;17.42;;;11.52;;
7605;SDS011;3844;53.360;9.738;2023-05-07T04:37:11;16.85;;;10.77;;
7605;SDS011;3844;53.360;9.738;2023-05-07T04:39:11;18.33;;;11.60;;
7605;SDS011;3844;53.360;9.738;2023-05-07T04:41:13;17.52;;;11.00;;
7605;SDS011;3844;53.360;9.738;2023-05-07T04:43:14;17.65;;;11.10;;
7605;SDS011;3844;53.360;9.738;2023-05-07T04:45:16;16.23;;;10.93;;
7605;SDS011;3844;53.360;9.738;2023-05-07T04:47:16;15.38;;;10.43;;
7605;SDS011;3844;53.360;9.738;2023-05-07T04:49:17;18.77;;;12.07;;
7605;SDS011;3844;53.360;9.738;2023-05-07T04:51:18;17.50;;;10.95;;
7605;SDS011;3844;53.360;9.738;2023-05-07T04:53:19;17.10;;;11.18;;
7605;SDS011;3844;53.360;9.738;2023-05-07T04:55:21;16.70;;;11.20;;
7605;SDS011;3844;53.360;9.738;2023-05-07T04:57:21;17.27;;;10.75;;
7605;SDS011;3844;53.360;9.738;2023-05-07T04:59:22;18.60;;;11.85;;
7605;SDS011;3844;53.360;9.738;2023-05-07T05:01:23;17.50;;;11.40;;
7605;SDS011;3844;53.360;9.738;2023-05-07T05:03:24;16.67;;;10.80;;
7605;SDS011;3844;53.360;9.738;2023-05-07T05:05:25;17.35;;;11.32;;
7605;SDS011;3844;53.360;9.738;2023-05-07T05:07:25;17.80;;;11.50;;
7605;SDS011;3844;53.360;9.738;2023-05-07T05:09:26;17.40;;;11.07;;
7605;SDS011;3844;53.360;9.738;2023-05-07T05:11:27;18.98;;;11.57;;
7605;SDS011;3844;53.360;9.738;2023-05-07T05:13:27;18.75;;;11.60;;
7605;SDS011;3844;53.360;9.738;2023-05-07T05:15:28;18.52;;;11.45;;
7605;SDS011;3844;53.360;9.738;2023-05-07T05:17:30;19.02;;;11.23;;
7605;SDS011;3844;53.360;9.738;2023-05-07T05:19:30;17.75;;;11.00;;
7605;SDS011;3844;53.360;9.738;2023-05-07T05:21:31;18.05;;;11.68;;
7605;SDS011;3844;53.360;9.738;2023-05-07T05:23:32;16.67;;;10.98;;
7605;SDS011;3844;53.360;9.738;2023-05-07T05:25:33;18.77;;;10.80;;
7605;SDS011;3844;53.360;9.738;2023-05-07T05:27:34;16.40;;;10.63;;
7605;SDS011;3844;53.360;9.738;2023-05-07T05:29:35;16.48;;;10.40;;
7605;SDS011;3844;53.360;9.738;2023-05-07T05:31:38;16.40;;;10.55;;
7605;SDS011;3844;53.360;9.738;2023-05-07T05:33:38;16.33;;;10.70;;
7605;SDS011;3844;53.360;9.738;2023-05-07T05:35:40;17.35;;;10.40;;
7605;SDS011;3844;53.360;9.738;2023-05-07T05:37:40;17.55;;;11.00;;
7605;SDS011;3844;53.360;9.738;2023-05-07T05:39:41;16.92;;;10.40;;
7605;SDS011;3844;53.360;9.738;2023-05-07T05:41:42;17.15;;;10.57;;
7605;SDS011;3844;53.360;9.738;2023-05-07T05:43:43;17.17;;;10.60;;
7605;SDS011;3844;53.360;9.738;2023-05-07T05:45:44;16.92;;;10.18;;
7605;SDS011;3844;53.360;9.738;2023-05-07T05:47:45;16.02;;;10.50;;
7605;SDS011;3844;53.360;9.738;2023-05-07T05:49:46;16.60;;;10.45;;
7605;SDS011;3844;53.360;9.738;2023-05-07T05:51:46;17.27;;;10.77;;
7605;SDS011;3844;53.360;9.738;2023-05-07T05:53:47;17.80;;;10.77;;
7605;SDS011;3844;53.360;9.738;2023-05-07T05:55:48;22.60;;;10.50;;
7605;SDS011;3844;53.360;9.738;2023-05-07T05:57:49;17.33;;;10.73;;
7605;SDS011;3844;53.360;9.738;2023-05-07T05:59:50;16.88;;;10.50;;
7605;SDS011;3844;53.360;9.738;2023-05-07T06:01:51;18.17;;;11.48;;
7605;SDS011;3844;53.360;9.738;2023-05-07T06:03:51;17.23;;;10.55;;
7605;SDS011;3844;53.360;9.738;2023-05-07T06:05:52;16.02;;;9.80;;
7605;SDS011;3844;53.360;9.738;2023-05-07T06:07:53;16.80;;;10.43;;
7605;SDS011;3844;53.360;9.738;2023-05-07T06:09:54;16.45;;;10.05;;
7605;SDS011;3844;53.360;9.738;2023-05-07T06:11:55;16.63;;;10.70;;
7605;SDS011;3844;53.360;9.738;2023-05-07T06:13:56;16.15;;;10.10;;
7605;SDS011;3844;53.360;9.738;2023-05-07T06:15:57;17.27;;;10.25;;
7605;SDS011;3844;53.360;9.738;2023-05-07T06:17:57;17.15;;;10.63;;
7605;SDS011;3844;53.360;9.738;2023-05-07T06:19:58;17.27;;;10.18;;
7605;SDS011;3844;53.360;9.738;2023-05-07T06:21:59;16.17;;;10.23;;
7605;SDS011;3844;53.360;9.738;2023-05-07T06:24:01;16.55;;;9.88;;
7605;SDS011;3844;53.360;9.738;2023-05-07T06:26:02;15.68;;;9.93;;
7605;SDS011;3844;53.360;9.738;2023-05-07T06:28:03;18.85;;;9.90;;
7605;SDS011;3844;53.360;9.738;2023-05-07T06:30:04;15.48;;;9.60;;
7605;SDS011;3844;53.360;9.738;2023-05-07T06:32:08;14.82;;;9.07;;
7605;SDS011;3844;53.360;9.738;2023-05-07T06:34:10;15.40;;;8.93;;
7605;SDS011;3844;53.360;9.738;2023-05-07T06:36:14;15.65;;;8.93;;
7605;SDS011;3844;53.360;9.738;2023-05-07T06:38:15;15.82;;;9.75;;
7605;SDS011;3844;53.360;9.738;2023-05-07T06:40:15;17.15;;;8.95;;
7605;SDS011;3844;53.360;9.738;2023-05-07T06:42:17;14.57;;;9.27;;
7605;SDS011;3844;53.360;9.738;2023-05-07T06:44:17;16.15;;;9.00;;
7605;SDS011;3844;53.360;9.738;2023-05-07T06:46:18;15.15;;;8.63;;
7605;SDS011;3844;53.360;9.738;2023-05-07T06:48:19;16.55;;;9.18;;
7605;SDS011;3844;53.360;9.738;2023-05-07T06:50:20;16.55;;;9.43;;
7605;SDS011;3844;53.360;9.738;2023-05-07T06:52:21;15.10;;;8.75;;
7605;SDS011;3844;53.360;9.738;2023-05-07T06:54:22;15.23;;;9.15;;
7605;SDS011;3844;53.360;9.738;2023-05-07T06:56:23;15.25;;;9.82;;
7605;SDS011;3844;53.360;9.738;2023-05-07T06:58:24;14.43;;;8.82;;
7605;SDS011;3844;53.360;9.738;2023-05-07T07:00:25;14.48;;;9.00;;
7605;SDS011;3844;53.360;9.738;2023-05-07T07:02:25;14.80;;;8.55;;
7605;SDS011;3844;53.360;9.738;2023-05-07T07:04:26;15.82;;;8.80;;
7605;SDS011;3844;53.360;9.738;2023-05-07T07:06:28;14.48;;;8.50;;
7605;SDS011;3844;53.360;9.738;2023-05-07T07:08:29;13.90;;;8.52;;
7605;SDS011;3844;53.360;9.738;2023-05-07T07:10:30;16.88;;;9.15;;
7605;SDS011;3844;53.360;9.738;2023-05-07T07:12:31;14.75;;;8.57;;
7605;SDS011;3844;53.360;9.738;2023-05-07T07:14:32;17.58;;;9.43;;
7605;SDS011;3844;53.360;9.738;2023-05-07T07:16:32;14.10;;;8.18;;
7605;SDS011;3844;53.360;9.738;2023-05-07T07:18:33;13.52;;;8.15;;
7605;SDS011;3844;53.360;9.738;2023-05-07T07:20:34;15.30;;;8.27;;
7605;SDS011;3844;53.360;9.738;2023-05-07T07:22:35;12.30;;;7.57;;
7605;SDS011;3844;53.360;9.738;2023-05-07T07:24:35;13.32;;;7.43;;
7605;SDS011;3844;53.360;9.738;2023-05-07T07:26:36;13.45;;;7.60;;
7605;SDS011;3844;53.360;9.738;2023-05-07T07:28:43;11.75;;;7.35;;
7605;SDS011;3844;53.360;9.738;2023-05-07T07:30:47;12.98;;;7.68;;
7605;SDS011;3844;53.360;9.738;2023-05-07T07:32:48;14.20;;;7.70;;
7605;SDS011;3844;53.360;9.738;2023-05-07T07:34:49;11.43;;;7.03;;
7605;SDS011;3844;53.360;9.738;2023-05-07T07:36:50;12.90;;;7.30;;
7605;SDS011;3844;53.360;9.738;2023-05-07T07:38:50;10.75;;;6.80;;
7605;SDS011;3844;53.360;9.738;2023-05-07T07:40:51;9.88;;;6.43;;
7605;SDS011;3844;53.360;9.738;2023-05-07T07:42:52;12.70;;;6.93;;
7605;SDS011;3844;53.360;9.738;2023-05-07T07:44:53;10.93;;;7.03;;
7605;SDS011;3844;53.360;9.738;2023-05-07T07:46:54;12.13;;;7.25;;
7605;SDS011;3844;53.360;9.738;2023-05-07T07:48:55;11.32;;;6.82;;
7605;SDS011;3844;53.360;9.738;2023-05-07T07:52:59;10.00;;;6.32;;
7605;SDS011;3844;53.360;9.738;2023-05-07T07:55:00;10.60;;;6.30;;
7605;SDS011;3844;53.360;9.738;2023-05-07T07:57:01;10.98;;;6.40;;
7605;SDS011;3844;53.360;9.738;2023-05-07T07:59:02;9.82;;;6.22;;
7605;SDS011;3844;53.360;9.738;2023-05-07T08:01:03;10.82;;;6.20;;
7605;SDS011;3844;53.360;9.738;2023-05-07T08:03:04;10.02;;;6.20;;
7605;SDS011;3844;53.360;9.738;2023-05-07T08:05:06;9.30;;;5.63;;
7605;SDS011;3844;53.360;9.738;2023-05-07T08:07:07;8.68;;;5.75;;
7605;SDS011;3844;53.360;9.738;2023-05-07T08:09:08;10.00;;;5.43;;
7605;SDS011;3844;53.360;9.738;2023-05-07T08:11:09;8.88;;;5.85;;
7605;SDS011;3844;53.360;9.738;2023-05-07T08:13:10;11.07;;;5.95;;
7605;SDS011;3844;53.360;9.738;2023-05-07T08:15:11;10.07;;;5.93;;
7605;SDS011;3844;53.360;9.738;2023-05-07T08:17:12;9.10;;;5.72;;
7605;SDS011;3844;53.360;9.738;2023-05-07T08:19:15;8.95;;;5.60;;
7605;SDS011;3844;53.360;9.738;2023-05-07T08:21:16;8.50;;;5.82;;
7605;SDS011;3844;53.360;9.738;2023-05-07T08:23:17;10.13;;;5.82;;
7605;SDS011;3844;53.360;9.738;2023-05-07T08:25:18;10.73;;;6.43;;
7605;SDS011;3844;53.360;9.738;2023-05-07T08:27:18;9.82;;;5.78;;
7605;SDS011;3844;53.360;9.738;2023-05-07T08:29:19;10.60;;;5.38;;
7605;SDS011;3844;53.360;9.738;2023-05-07T08:31:20;9.00;;;5.55;;
7605;SDS011;3844;53.360;9.738;2023-05-07T08:33:21;10.57;;;6.28;;
7605;SDS011;3844;53.360;9.738;2023-05-07T08:35:21;10.25;;;5.75;;
7605;SDS011;3844;53.360;9.738;2023-05-07T08:37:22;9.07;;;5.78;;
7605;SDS011;3844;53.360;9.738;2023-05-07T08:39:23;9.63;;;5.72;;
7605;SDS011;3844;53.360;9.738;2023-05-07T08:41:24;8.68;;;5.60;;
7605;SDS011;3844;53.360;9.738;2023-05-07T08:43:26;8.38;;;5.22;;
7605;SDS011;3844;53.360;9.738;2023-05-07T08:45:27;9.75;;;5.65;;
7605;SDS011;3844;53.360;9.738;2023-05-07T08:47:34;9.95;;;5.60;;
7605;SDS011;3844;53.360;9.738;2023-05-07T08:49:46;9.07;;;5.47;;
7605;SDS011;3844;53.360;9.738;2023-05-07T08:51:48;8.32;;;4.88;;
7605;SDS011;3844;53.360;9.738;2023-05-07T08:53:49;9.77;;;6.00;;
7605;SDS011;3844;53.360;9.738;2023-05-07T08:55:50;9.27;;;5.45;;
7605;SDS011;3844;53.360;9.738;2023-05-07T08:57:51;9.45;;;5.30;;
7605;SDS011;3844;53.360;9.738;2023-05-07T08:59:53;10.32;;;5.80;;
7605;SDS011;3844;53.360;9.738;2023-05-07T09:01:53;8.68;;;5.72;;
7605;SDS011;3844;53.360;9.738;2023-05-07T09:03:54;8.43;;;5.28;;
7605;SDS011;3844;53.360;9.738;2023-05-07T09:05:55;10.32;;;6.20;;
7605;SDS011;3844;53.360;9.738;2023-05-07T09:07:58;9.77;;;6.00;;
7605;SDS011;3844;53.360;9.738;2023-05-07T09:10:03;8.90;;;5.55;;
7605;SDS011;3844;53.360;9.738;2023-05-07T09:12:04;9.15;;;5.53;;
7605;SDS011;3844;53.360;9.738;2023-05-07T09:14:05;10.85;;;6.30;;
7605;SDS011;3844;53.360;9.738;2023-05-07T09:16:10;9.48;;;5.93;;
7605;SDS011;3844;53.360;9.738;2023-05-07T09:18:12;9.48;;;6.00;;
7605;SDS011;3844;53.360;9.738;2023-05-07T09:20:13;8.77;;;6.07;;
7605;SDS011;3844;53.360;9.738;2023-05-07T09:22:14;10.30;;;5.97;;
7605;SDS011;3844;53.360;9.738;2023-05-07T09:24:15;8.63;;;5.57;;
7605;SDS011;3844;53.360;9.738;2023-05-07T09:26:16;9.70;;;6.07;;
7605;SDS011;3844;53.360;9.738;2023-05-07T09:28:17;8.52;;;5.10;;
7605;SDS011;3844;53.360;9.738;2023-05-07T09:30:17;7.72;;;5.28;;
7605;SDS011;3844;53.360;9.738;2023-05-07T09:32:18;9.48;;;5.72;;
7605;SDS011;3844;53.360;9.738;2023-05-07T09:34:19;8.63;;;5.80;;
7605;SDS011;3844;53.360;9.738;2023-05-07T09:36:20;9.13;;;5.65;;
7605;SDS011;3844;53.360;9.738;2023-05-07T09:38:21;8.23;;;5.13;;
7605;SDS011;3844;53.360;9.738;2023-05-07T09:40:23;10.45;;;5.70;;
7605;SDS011;3844;53.360;9.738;2023-05-07T09:42:25;8.35;;;5.18;;
7605;SDS011;3844;53.360;9.738;2023-05-07T09:44:29;9.00;;;5.00;;
7605;SDS011;3844;53.360;9.738;2023-05-07T09:46:32;8.13;;;4.90;;
7605;SDS011;3844;53.360;9.738;2023-05-07T09:48:38;7.72;;;4.97;;
7605;SDS011;3844;53.360;9.738;2023-05-07T09:50:48;9.05;;;4.50;;
7605;SDS011;3844;53.360;9.738;2023-05-07T09:52:50;8.70;;;5.03;;
7605;SDS011;3844;53.360;9.738;2023-05-07T09:54:52;7.50;;;5.00;;
7605;SDS011;3844;53.360;9.738;2023-05-07T09:56:55;7.82;;;4.40;;
7605;SDS011;3844;53.360;9.738;2023-05-07T09:58:58;8.55;;;5.15;;
7605;SDS011;3844;53.360;9.738;2023-05-07T10:01:00;8.70;;;4.97;;
7605;SDS011;3844;53.360;9.738;2023-05-07T10:03:03;8.35;;;4.65;;
7605;SDS011;3844;53.360;9.738;2023-05-07T10:05:05;8.10;;;4.82;;
7605;SDS011;3844;53.360;9.738;2023-05-07T10:07:07;7.50;;;5.00;;
7605;SDS011;3844;53.360;9.738;2023-05-07T10:09:09;8.32;;;4.70;;
7605;SDS011;3844;53.360;9.738;2023-05-07T10:11:11;8.68;;;4.93;;
7605;SDS011;3844;53.360;9.738;2023-05-07T10:13:12;7.22;;;4.85;;
7605;SDS011;3844;53.360;9.738;2023-05-07T10:15:13;8.25;;;4.90;;
7605;SDS011;3844;53.360;9.738;2023-05-07T10:17:15;7.97;;;5.00;;
7605;SDS011;3844;53.360;9.738;2023-05-07T10:19:17;6.72;;;4.47;;
7605;SDS011;3844;53.360;9.738;2023-05-07T10:21:19;7.25;;;4.60;;
7605;SDS011;3844;53.360;9.738;2023-05-07T10:23:23;8.15;;;5.15;;
7605;SDS011;3844;53.360;9.738;2023-05-07T10:25:31;7.93;;;4.70;;
7605;SDS011;3844;53.360;9.738;2023-05-07T10:27:32;7.75;;;5.20;;
7605;SDS011;3844;53.360;9.738;2023-05-07T10:29:37;9.00;;;5.35;;
7605;SDS011;3844;53.360;9.738;2023-05-07T10:31:50;8.65;;;4.88;;
7605;SDS011;3844;53.360;9.738;2023-05-07T10:34:09;8.32;;;4.85;;
7605;SDS011;3844;53.360;9.738;2023-05-07T10:36:16;6.80;;;4.45;;
7605;SDS011;3844;53.360;9.738;2023-05-07T10:38:18;6.93;;;4.50;;
7605;SDS011;3844;53.360;9.738;2023-05-07T10:40:20;8.48;;;4.90;;
7605;SDS011;3844;53.360;9.738;2023-05-07T10:42:21;8.48;;;4.82;;
7605;SDS011;3844;53.360;9.738;2023-05-07T10:44:25;8.57;;;4.70;;
7605;SDS011;3844;53.360;9.738;2023-05-07T10:46:29;7.22;;;4.57;;
7605;SDS011;3844;53.360;9.738;2023-05-07T10:48:33;7.22;;;4.50;;
7605;SDS011;3844;53.360;9.738;2023-05-07T10:50:33;7.22;;;4.80;;
7605;SDS011;3844;53.360;9.738;2023-05-07T10:52:35;7.88;;;4.70;;
7605;SDS011;3844;53.360;9.738;2023-05-07T10:54:36;7.60;;;4.70;;
7605;SDS011;3844;53.360;9.738;2023-05-07T10:56:39;7.43;;;4.85;;
7605;SDS011;3844;53.360;9.738;2023-05-07T10:58:47;7.82;;;4.80;;
7605;SDS011;3844;53.360;9.738;2023-05-07T11:00:48;7.38;;;4.60;;
7605;SDS011;3844;53.360;9.738;2023-05-07T11:05:20;9.10;;;4.88;;
7605;SDS011;3844;53.360;9.738;2023-05-07T11:07:25;6.07;;;4.10;;
7605;SDS011;3844;53.360;9.738;2023-05-07T11:09:53;7.55;;;4.50;;
7605;SDS011;3844;53.360;9.738;2023-05-07T11:11:51;6.93;;;4.53;;
7605;SDS011;3844;53.360;9.738;2023-05-07T11:13:52;7.32;;;4.13;;
7605;SDS011;3844;53.360;9.738;2023-05-07T11:15:53;7.53;;;4.57;;
7605;SDS011;3844;53.360;9.738;2023-05-07T11:17:54;7.28;;;4.38;;
7605;SDS011;3844;53.360;9.738;2023-05-07T11:19:56;8.13;;;4.43;;
7605;SDS011;3844;53.360;9.738;2023-05-07T11:21:57;7.40;;;4.80;;
7605;SDS011;3844;53.360;9.738;2023-05-07T11:23:58;7.65;;;4.80;;
7605;SDS011;3844;53.360;9.738;2023-05-07T11:28:05;7.85;;;4.60;;
7605;SDS011;3844;53.360;9.738;2023-05-07T11:30:18;7.13;;;4.35;;
7605;SDS011;3844;53.360;9.738;2023-05-07T11:32:22;6.65;;;4.65;;
7605;SDS011;3844;53.360;9.738;2023-05-07T11:34:24;9.15;;;4.80;;
7605;SDS011;3844;53.360;9.738;2023-05-07T11:36:30;7.32;;;4.78;;
7605;SDS011;3844;53.360;9.738;2023-05-07T11:38:35;7.90;;;4.57;;
7605;SDS011;3844;53.360;9.738;2023-05-07T11:40:55;8.05;;;4.75;;
7605;SDS011;3844;53.360;9.738;2023-05-07T11:42:57;6.75;;;4.78;;
7605;SDS011;3844;53.360;9.738;2023-05-07T11:44:58;7.82;;;4.85;;
7605;SDS011;3844;53.360;9.738;2023-05-07T11:46:59;8.57;;;4.30;;
7605;SDS011;3844;53.360;9.738;2023-05-07T11:49:00;8.32;;;5.10;;
7605;SDS011;3844;53.360;9.738;2023-05-07T11:51:02;7.63;;;4.20;;
7605;SDS011;3844;53.360;9.738;2023-05-07T11:53:09;7.25;;;4.20;;
7605;SDS011;3844;53.360;9.738;2023-05-07T11:55:10;6.90;;;4.40;;
7605;SDS011;3844;53.360;9.738;2023-05-07T11:57:14;7.63;;;4.38;;
7605;SDS011;3844;53.360;9.738;2023-05-07T11:59:18;6.47;;;4.30;;
7605;SDS011;3844;53.360;9.738;2023-05-07T12:01:19;8.23;;;4.40;;
7605;SDS011;3844;53.360;9.738;2023-05-07T12:03:20;7.70;;;4.18;;
7605;SDS011;3844;53.360;9.738;2023-05-07T12:05:21;7.18;;;4.53;;
7605;SDS011;3844;53.360;9.738;2023-05-07T12:07:23;6.90;;;4.03;;
7605;SDS011;3844;53.360;9.738;2023-05-07T12:09:24;6.97;;;4.45;;
7605;SDS011;3844;53.360;9.738;2023-05-07T12:11:25;6.70;;;4.05;;
7605;SDS011;3844;53.360;9.738;2023-05-07T12:13:26;6.72;;;4.40;;
7605;SDS011;3844;53.360;9.738;2023-05-07T12:15:27;6.18;;;3.83;;
7605;SDS011;3844;53.360;9.738;2023-05-07T12:17:28;6.70;;;3.80;;
7605;SDS011;3844;53.360;9.738;2023-05-07T12:19:29;6.70;;;3.50;;
7605;SDS011;3844;53.360;9.738;2023-05-07T12:21:30;6.32;;;4.18;;
7605;SDS011;3844;53.360;9.738;2023-05-07T12:23:31;6.55;;;3.40;;
7605;SDS011;3844;53.360;9.738;2023-05-07T12:25:37;6.53;;;3.85;;
7605;SDS011;3844;53.360;9.738;2023-05-07T12:27:39;6.25;;;3.70;;
7605;SDS011;3844;53.360;9.738;2023-05-07T12:29:43;5.50;;;3.50;;
7605;SDS011;3844;53.360;9.738;2023-05-07T12:31:47;6.47;;;4.03;;